Peleus — V2FV2 — position and weather

sailwx.info

Track history (hours):
 
Tides and Currents Weather Stations Pressure Air Temp Water Temp Dewpoint Dewpoint Depression Visibility Wind Speed Wind Dir Waves Ship Positions

Peleus

Last reported at 2016-Aug-28 10:10 UTC. Time now 2016-Aug-29 00:08 UTC.
Position N 35°58' W 005°38'.

Length 88 m; draft 5.5 m.

Type: Cargo ship. MMSI: 305810000.

Date/timePositionNaut miles runAvg speedWind from/ knotsBaromVisibWave heightAir tempDewpointWater temp
2016-Aug-28 10:10N 35°58' W 005°38'610.3
2016-Aug-28 09:33N 35°59' W 005°31'8 8.3
2016-Aug-28 08:33N 35°56' W 005°21'3 2.7
2016-Aug-28 07:33N 35°54' W 005°19'0 0.0
2016-Aug-28 06:33N 35°54' W 005°19'0 0.0
2016-Aug-28 05:33N 35°54' W 005°19'0 0.0
2016-Aug-28 04:33N 35°54' W 005°19'4 4.4
2016-Aug-28 03:33N 35°56' W 005°14'9 8.9
2016-Aug-28 02:33N 35°57' W 005°03'110 8.3
2016-Aug-27 13:25N 36°19' W 002°51'8 9.2
2016-Aug-27 12:32N 36°21' W 002°41'1010.2
2016-Aug-27 11:33N 36°23' W 002°28'1210.3
2016-Aug-27 10:22N 36°26' W 002°14'7910.0
2016-Aug-27 02:23N 37°17' W 000°58'8 9.9
2016-Aug-27 01:33N 37°23' W 000°51'10 9.8
2016-Aug-27 00:33N 37°29' W 000°41'1010.0
2016-Aug-26 23:33N 37°36' W 000°32'10 9.8
2016-Aug-26 22:33N 37°44' W 000°25'33 9.3
2016-Aug-26 19:03N 38°11' W 000°02'5 9.3
2016-Aug-26 18:33N 38°15' E 000°01'9 9.1
2016-Aug-26 17:33N 38°23' E 000°07'106 9.6
2016-Aug-26 06:29N 39°56' E 001°14'1910.1
2016-Aug-26 04:33N 40°13' E 001°26'1110.1
2016-Aug-26 03:30N 40°22' E 001°33'1110.1
2016-Aug-26 02:24N 40°32' E 001°39'910.0
2016-Aug-26 01:33N 40°40' E 001°45'11 9.7
2016-Aug-26 00:25N 40°49' E 001°51'8 9.6
2016-Aug-25 23:32N 40°57' E 001°57'10 9.7
2016-Aug-25 22:32N 41°05' E 002°03'9 9.5
2016-Aug-25 21:32N 41°14' E 002°09'7 6.2
2016-Aug-25 20:26N 41°20' E 002°09'0 0.0
2016-Aug-25 18:32N 41°20' E 002°09'0 0.0
2016-Aug-25 15:32N 41°20' E 002°09'0 0.0
2016-Aug-25 12:20N 41°20' E 002°09'0 0.0
2016-Aug-25 02:26N 41°20' E 002°09'0 0.0
2016-Aug-24 23:32N 41°20' E 002°09'0 0.0
2016-Aug-24 22:20N 41°20' E 002°09'1 1.1
2016-Aug-24 21:33N 41°21' E 002°10'1 0.8
2016-Aug-24 20:31N 41°20' E 002°11'0 0.0
2016-Aug-24 18:28N 41°20' E 002°11'0 0.0
2016-Aug-24 17:22N 41°20' E 002°11'0 0.0
2016-Aug-24 16:31N 41°20' E 002°11'0 0.0
2016-Aug-24 13:28N 41°20' E 002°11'0 0.0
2016-Aug-24 12:22N 41°20' E 002°11'0 0.0
2016-Aug-24 11:04N 41°20' E 002°11'0 0.0
2016-Aug-24 10:28N 41°20' E 002°11'0 0.0
2016-Aug-24 09:31N 41°20' E 002°11'0 0.0
2016-Aug-24 08:25N 41°20' E 002°11'0 0.0
2016-Aug-24 07:28N 41°20' E 002°11'0 0.0
2016-Aug-24 02:10N 41°20' E 002°11'0 0.1
2016-Aug-24 01:28N 41°20' E 002°11'0 0.0
2016-Aug-24 00:28N 41°20' E 002°11'0 0.1
2016-Aug-23 23:10N 41°20' E 002°11'0 0.1
2016-Aug-23 22:28N 41°20' E 002°11'0 0.0
2016-Aug-23 21:16N 41°20' E 002°11'0 0.0
2016-Aug-23 18:04N 41°20' E 002°11'0 0.0
2016-Aug-23 16:16N 41°20' E 002°11'0 0.0
2016-Aug-23 15:28N 41°20' E 002°11'0 0.0
2016-Aug-23 11:16N 41°20' E 002°11'0 0.0
2016-Aug-23 08:10N 41°20' E 002°11'0 0.0
2016-Aug-23 07:16N 41°20' E 002°11'0 0.0
2016-Aug-23 06:22N 41°20' E 002°11'0 0.0
2016-Aug-23 04:28N 41°20' E 002°11'0 0.0
2016-Aug-23 03:13N 41°20' E 002°11'0 0.1
2016-Aug-23 02:31N 41°20' E 002°11'0 0.0
2016-Aug-22 23:28N 41°20' E 002°11'0 0.0
2016-Aug-22 22:10N 41°20' E 002°11'0 0.0
2016-Aug-22 21:28N 41°20' E 002°11'0 0.0
2016-Aug-22 16:16N 41°20' E 002°11'0 0.0
2016-Aug-22 10:19N 41°20' E 002°11'0 0.0
2016-Aug-22 09:31N 41°20' E 002°11'0 0.0
2016-Aug-22 08:34N 41°20' E 002°11'0 0.0
2016-Aug-22 07:34N 41°20' E 002°11'0 0.0
2016-Aug-22 06:33N 41°20' E 002°11'0 0.0
2016-Aug-22 05:33N 41°20' E 002°11'0 0.0
2016-Aug-22 04:33N 41°20' E 002°11'0 0.0
2016-Aug-21 21:27N 41°20' E 002°11'0 0.0
2016-Aug-21 20:30N 41°20' E 002°11'0 0.0
2016-Aug-21 19:30N 41°20' E 002°11'0 0.0
2016-Aug-21 18:33N 41°20' E 002°11'0 0.0
2016-Aug-21 17:24N 41°20' E 002°11'0 0.0
2016-Aug-21 16:21N 41°20' E 002°11'0 0.0
2016-Aug-21 15:33N 41°20' E 002°11'0 0.0
2016-Aug-21 14:33N 41°20' E 002°11'0 0.0
2016-Aug-21 13:33N 41°20' E 002°11'0 0.0
2016-Aug-21 12:33N 41°20' E 002°11'0 0.0
2016-Aug-21 11:33N 41°20' E 002°11'0 0.0
2016-Aug-21 10:33N 41°20' E 002°11'0 0.0
2016-Aug-21 09:15N 41°20' E 002°11'0 0.0
2016-Aug-21 08:33N 41°20' E 002°11'0 0.0
2016-Aug-21 07:33N 41°20' E 002°11'0 0.2
2016-Aug-21 06:28N 41°20' E 002°11'150 7.2
2016-Aug-20 09:32N 42°27' E 005°12'8 7.5
2016-Aug-20 08:26N 42°31' E 005°22'8 7.8
2016-Aug-20 07:24N 42°34' E 005°32'9 8.8
2016-Aug-20 06:21N 42°39' E 005°43'15 8.0
2016-Aug-20 04:32N 42°46' E 006°01'8 8.2
2016-Aug-20 03:32N 42°49' E 006°10'34 8.3
2016-Aug-19 23:26N 43°07' E 006°50'7 8.4
2016-Aug-19 22:33N 43°11' E 006°59'8 8.1
2016-Aug-19 21:33N 43°16' E 007°08'9 8.2
2016-Aug-19 20:29N 43°21' E 007°18'10 8.6
2016-Aug-19 19:21N 43°26' E 007°29'7 8.6
2016-Aug-19 18:33N 43°30' E 007°36'9 8.8
2016-Aug-19 17:33N 43°35' E 007°46'9 9.0
2016-Aug-19 16:32N 43°41' E 007°57'26 8.3
2016-Aug-19 13:23N 44°00' E 008°21'7 8.5
2016-Aug-19 12:33N 44°06' E 008°26'8 8.1
2016-Aug-19 11:33N 44°14' E 008°30'5 4.8
2016-Aug-19 10:30N 44°19' E 008°30'0 0.0
2016-Aug-19 09:24N 44°19' E 008°30'0 0.0
2016-Aug-19 08:30N 44°19' E 008°30'0 0.0
2016-Aug-19 07:33N 44°19' E 008°30'0 0.0
2016-Aug-19 06:33N 44°19' E 008°30'0 0.0
2016-Aug-19 05:33N 44°19' E 008°30'0 0.0
2016-Aug-19 04:30N 44°19' E 008°30'0 0.0
2016-Aug-19 03:33N 44°19' E 008°30'0 0.0
2016-Aug-19 02:33N 44°19' E 008°30'0 0.0
2016-Aug-19 01:33N 44°19' E 008°30'0 0.0
2016-Aug-19 00:33N 44°19' E 008°30'0 0.0
2016-Aug-18 23:30N 44°19' E 008°30'0 0.0
2016-Aug-18 22:30N 44°19' E 008°30'0 0.0
2016-Aug-18 21:30N 44°19' E 008°30'0 0.0
2016-Aug-18 20:30N 44°19' E 008°30'0 0.0
2016-Aug-18 19:33N 44°19' E 008°30'0 0.0
2016-Aug-18 18:33N 44°19' E 008°30'0 0.0
2016-Aug-18 17:24N 44°19' E 008°30'0 0.0
2016-Aug-18 16:30N 44°19' E 008°30'0 0.0
2016-Aug-18 15:33N 44°19' E 008°30'0 0.0
2016-Aug-18 14:33N 44°19' E 008°30'0 0.0
2016-Aug-18 13:30N 44°19' E 008°30'0 0.0
2016-Aug-18 12:33N 44°19' E 008°30'0 0.0
2016-Aug-18 11:30N 44°19' E 008°30'0 0.0
2016-Aug-18 10:30N 44°19' E 008°30'  
Track history (hours):
 
Tides and Currents Weather Stations Pressure Air Temp Water Temp Dewpoint Dewpoint Depression Visibility Wind Speed Wind Dir Waves Ship Positions

Peleus

Last reported at 2016-Aug-28 10:10 UTC. Time now 2016-Aug-29 00:08 UTC.
Position N 35°58' W 005°38'.

Length 88 m; draft 5.5 m.

Type: Cargo ship. MMSI: 305810000.

Date/timePositionNaut miles runAvg speedWind from/ knotsBaromVisibWave heightAir tempDewpointWater temp
2016-Aug-28 10:10N 35°58' W 005°38'610.3
2016-Aug-28 09:33N 35°59' W 005°31'8 8.3
2016-Aug-28 08:33N 35°56' W 005°21'3 2.7
2016-Aug-28 07:33N 35°54' W 005°19'0 0.0
2016-Aug-28 06:33N 35°54' W 005°19'0 0.0
2016-Aug-28 05:33N 35°54' W 005°19'0 0.0
2016-Aug-28 04:33N 35°54' W 005°19'4 4.4
2016-Aug-28 03:33N 35°56' W 005°14'9 8.9
2016-Aug-28 02:33N 35°57' W 005°03'110 8.3
2016-Aug-27 13:25N 36°19' W 002°51'8 9.2
2016-Aug-27 12:32N 36°21' W 002°41'1010.2
2016-Aug-27 11:33N 36°23' W 002°28'1210.3
2016-Aug-27 10:22N 36°26' W 002°14'7910.0
2016-Aug-27 02:23N 37°17' W 000°58'8 9.9
2016-Aug-27 01:33N 37°23' W 000°51'10 9.8
2016-Aug-27 00:33N 37°29' W 000°41'1010.0
2016-Aug-26 23:33N 37°36' W 000°32'10 9.8
2016-Aug-26 22:33N 37°44' W 000°25'33 9.3
2016-Aug-26 19:03N 38°11' W 000°02'5 9.3
2016-Aug-26 18:33N 38°15' E 000°01'9 9.1
2016-Aug-26 17:33N 38°23' E 000°07'106 9.6
2016-Aug-26 06:29N 39°56' E 001°14'1910.1
2016-Aug-26 04:33N 40°13' E 001°26'1110.1
2016-Aug-26 03:30N 40°22' E 001°33'1110.1
2016-Aug-26 02:24N 40°32' E 001°39'910.0
2016-Aug-26 01:33N 40°40' E 001°45'11 9.7
2016-Aug-26 00:25N 40°49' E 001°51'8 9.6
2016-Aug-25 23:32N 40°57' E 001°57'10 9.7
2016-Aug-25 22:32N 41°05' E 002°03'9 9.5
2016-Aug-25 21:32N 41°14' E 002°09'7 6.2
2016-Aug-25 20:26N 41°20' E 002°09'0 0.0
2016-Aug-25 18:32N 41°20' E 002°09'0 0.0
2016-Aug-25 15:32N 41°20' E 002°09'0 0.0
2016-Aug-25 12:20N 41°20' E 002°09'0 0.0
2016-Aug-25 02:26N 41°20' E 002°09'0 0.0
2016-Aug-24 23:32N 41°20' E 002°09'0 0.0
2016-Aug-24 22:20N 41°20' E 002°09'1 1.1
2016-Aug-24 21:33N 41°21' E 002°10'1 0.8
2016-Aug-24 20:31N 41°20' E 002°11'0 0.0
2016-Aug-24 18:28N 41°20' E 002°11'0 0.0
2016-Aug-24 17:22N 41°20' E 002°11'0 0.0
2016-Aug-24 16:31N 41°20' E 002°11'0 0.0
2016-Aug-24 13:28N 41°20' E 002°11'0 0.0
2016-Aug-24 12:22N 41°20' E 002°11'0 0.0
2016-Aug-24 11:04N 41°20' E 002°11'0 0.0
2016-Aug-24 10:28N 41°20' E 002°11'0 0.0
2016-Aug-24 09:31N 41°20' E 002°11'0 0.0
2016-Aug-24 08:25N 41°20' E 002°11'0 0.0
2016-Aug-24 07:28N 41°20' E 002°11'0 0.0
2016-Aug-24 02:10N 41°20' E 002°11'0 0.1
2016-Aug-24 01:28N 41°20' E 002°11'0 0.0
2016-Aug-24 00:28N 41°20' E 002°11'0 0.1
2016-Aug-23 23:10N 41°20' E 002°11'0 0.1
2016-Aug-23 22:28N 41°20' E 002°11'0 0.0
2016-Aug-23 21:16N 41°20' E 002°11'0 0.0
2016-Aug-23 18:04N 41°20' E 002°11'0 0.0
2016-Aug-23 16:16N 41°20' E 002°11'0 0.0
2016-Aug-23 15:28N 41°20' E 002°11'0 0.0
2016-Aug-23 11:16N 41°20' E 002°11'0 0.0
2016-Aug-23 08:10N 41°20' E 002°11'0 0.0
2016-Aug-23 07:16N 41°20' E 002°11'0 0.0
2016-Aug-23 06:22N 41°20' E 002°11'0 0.0
2016-Aug-23 04:28N 41°20' E 002°11'0 0.0
2016-Aug-23 03:13N 41°20' E 002°11'0 0.1
2016-Aug-23 02:31N 41°20' E 002°11'0 0.0
2016-Aug-22 23:28N 41°20' E 002°11'0 0.0
2016-Aug-22 22:10N 41°20' E 002°11'0 0.0
2016-Aug-22 21:28N 41°20' E 002°11'0 0.0
2016-Aug-22 16:16N 41°20' E 002°11'0 0.0
2016-Aug-22 10:19N 41°20' E 002°11'0 0.0
2016-Aug-22 09:31N 41°20' E 002°11'0 0.0
2016-Aug-22 08:34N 41°20' E 002°11'0 0.0
2016-Aug-22 07:34N 41°20' E 002°11'0 0.0
2016-Aug-22 06:33N 41°20' E 002°11'0 0.0
2016-Aug-22 05:33N 41°20' E 002°11'0 0.0
2016-Aug-22 04:33N 41°20' E 002°11'0 0.0
2016-Aug-21 21:27N 41°20' E 002°11'0 0.0
2016-Aug-21 20:30N 41°20' E 002°11'0 0.0
2016-Aug-21 19:30N 41°20' E 002°11'0 0.0
2016-Aug-21 18:33N 41°20' E 002°11'0 0.0
2016-Aug-21 17:24N 41°20' E 002°11'0 0.0
2016-Aug-21 16:21N 41°20' E 002°11'0 0.0
2016-Aug-21 15:33N 41°20' E 002°11'0 0.0
2016-Aug-21 14:33N 41°20' E 002°11'0 0.0
2016-Aug-21 13:33N 41°20' E 002°11'0 0.0
2016-Aug-21 12:33N 41°20' E 002°11'0 0.0
2016-Aug-21 11:33N 41°20' E 002°11'0 0.0
2016-Aug-21 10:33N 41°20' E 002°11'0 0.0
2016-Aug-21 09:15N 41°20' E 002°11'0 0.0
2016-Aug-21 08:33N 41°20' E 002°11'0 0.0
2016-Aug-21 07:33N 41°20' E 002°11'0 0.2
2016-Aug-21 06:28N 41°20' E 002°11'150 7.2
2016-Aug-20 09:32N 42°27' E 005°12'8 7.5
2016-Aug-20 08:26N 42°31' E 005°22'8 7.8
2016-Aug-20 07:24N 42°34' E 005°32'9 8.8
2016-Aug-20 06:21N 42°39' E 005°43'15 8.0
2016-Aug-20 04:32N 42°46' E 006°01'8 8.2
2016-Aug-20 03:32N 42°49' E 006°10'34 8.3
2016-Aug-19 23:26N 43°07' E 006°50'7 8.4
2016-Aug-19 22:33N 43°11' E 006°59'8 8.1
2016-Aug-19 21:33N 43°16' E 007°08'9 8.2
2016-Aug-19 20:29N 43°21' E 007°18'10 8.6
2016-Aug-19 19:21N 43°26' E 007°29'7 8.6
2016-Aug-19 18:33N 43°30' E 007°36'9 8.8
2016-Aug-19 17:33N 43°35' E 007°46'9 9.0
2016-Aug-19 16:32N 43°41' E 007°57'26 8.3
2016-Aug-19 13:23N 44°00' E 008°21'7 8.5
2016-Aug-19 12:33N 44°06' E 008°26'8 8.1
2016-Aug-19 11:33N 44°14' E 008°30'5 4.8
2016-Aug-19 10:30N 44°19' E 008°30'0 0.0
2016-Aug-19 09:24N 44°19' E 008°30'0 0.0
2016-Aug-19 08:30N 44°19' E 008°30'0 0.0
2016-Aug-19 07:33N 44°19' E 008°30'0 0.0
2016-Aug-19 06:33N 44°19' E 008°30'0 0.0
2016-Aug-19 05:33N 44°19' E 008°30'0 0.0
2016-Aug-19 04:30N 44°19' E 008°30'0 0.0
2016-Aug-19 03:33N 44°19' E 008°30'0 0.0
2016-Aug-19 02:33N 44°19' E 008°30'0 0.0
2016-Aug-19 01:33N 44°19' E 008°30'0 0.0
2016-Aug-19 00:33N 44°19' E 008°30'0 0.0
2016-Aug-18 23:30N 44°19' E 008°30'0 0.0
2016-Aug-18 22:30N 44°19' E 008°30'0 0.0
2016-Aug-18 21:30N 44°19' E 008°30'0 0.0
2016-Aug-18 20:30N 44°19' E 008°30'0 0.0
2016-Aug-18 19:33N 44°19' E 008°30'0 0.0
2016-Aug-18 18:33N 44°19' E 008°30'0 0.0
2016-Aug-18 17:24N 44°19' E 008°30'0 0.0
2016-Aug-18 16:30N 44°19' E 008°30'0 0.0
2016-Aug-18 15:33N 44°19' E 008°30'0 0.0
2016-Aug-18 14:33N 44°19' E 008°30'0 0.0
2016-Aug-18 13:30N 44°19' E 008°30'0 0.0
2016-Aug-18 12:33N 44°19' E 008°30'0 0.0
2016-Aug-18 11:30N 44°19' E 008°30'0 0.0
2016-Aug-18 10:30N 44°19' E 008°30'  

Dump ship's entire track history